createdAt,value
2022-11-09T00:00:10.710Z,0.00
2022-11-09T00:01:10.727Z,0.00
2022-11-09T00:02:10.703Z,0.00
2022-11-09T00:03:10.684Z,0.00
2022-11-09T00:04:10.683Z,0.00
2022-11-09T00:05:10.675Z,0.00
2022-11-09T00:06:10.681Z,0.00
2022-11-09T00:07:10.697Z,0.00
2022-11-09T00:08:10.647Z,0.00
2022-11-09T00:09:10.618Z,0.00
2022-11-09T00:10:10.671Z,0.00
2022-11-09T00:11:10.630Z,0.00
2022-11-09T00:12:10.585Z,0.00
2022-11-09T00:13:10.589Z,0.00
2022-11-09T00:14:10.572Z,0.00
2022-11-09T00:15:10.551Z,0.00
2022-11-09T00:16:10.584Z,0.00
2022-11-09T00:17:10.524Z,0.00
2022-11-09T00:18:10.522Z,0.00
2022-11-09T00:19:10.501Z,0.00
2022-11-09T00:20:10.497Z,0.00
2022-11-09T00:21:10.532Z,0.00
2022-11-09T00:22:10.480Z,0.00
2022-11-09T00:23:10.459Z,0.00
2022-11-09T00:24:10.449Z,0.00
2022-11-09T00:25:10.452Z,0.00
2022-11-09T00:26:10.418Z,0.00
2022-11-09T00:27:15.163Z,0.00
2022-11-09T00:28:11.401Z,0.00
2022-11-09T00:29:10.398Z,0.00
2022-11-09T00:30:10.367Z,0.00
2022-11-09T00:31:10.379Z,0.00
2022-11-09T00:32:10.382Z,0.00
2022-11-09T00:33:10.342Z,0.00
2022-11-09T00:34:10.343Z,0.00
2022-11-09T00:35:10.321Z,0.00
2022-11-09T00:36:10.317Z,0.00
2022-11-09T00:37:10.321Z,0.00
2022-11-09T00:38:10.337Z,0.00
2022-11-09T00:39:10.294Z,0.00
2022-11-09T00:40:10.259Z,0.00
2022-11-09T00:41:10.294Z,0.00
2022-11-09T00:42:10.281Z,0.00
2022-11-09T00:43:10.247Z,0.00
2022-11-09T00:44:10.227Z,0.00
2022-11-09T00:45:10.202Z,0.00
2022-11-09T00:46:10.202Z,0.00
2022-11-09T00:47:10.219Z,0.00
2022-11-09T00:48:10.186Z,0.00
2022-11-09T00:49:10.184Z,0.00
2022-11-09T00:50:10.161Z,0.00
2022-11-09T00:51:10.171Z,0.00
2022-11-09T00:52:10.133Z,0.00
2022-11-09T00:53:10.139Z,0.00
2022-11-09T00:54:10.117Z,0.00
2022-11-09T00:55:10.097Z,0.00
2022-11-09T00:56:10.124Z,0.00
2022-11-09T00:57:10.084Z,0.00
2022-11-09T00:58:10.064Z,0.00
2022-11-09T00:59:10.062Z,0.00
2022-11-09T01:00:10.040Z,0.00
2022-11-09T01:01:10.174Z,0.00
2022-11-09T01:02:10.023Z,0.00
2022-11-09T01:03:09.993Z,0.00
2022-11-09T01:04:10.001Z,0.00
2022-11-09T01:05:09.977Z,0.00
2022-11-09T01:06:09.979Z,0.00
2022-11-09T01:07:10.069Z,0.00
2022-11-09T01:08:09.950Z,0.00
2022-11-09T01:09:09.945Z,0.00
2022-11-09T01:10:09.925Z,0.00
2022-11-09T01:11:09.926Z,0.00
2022-11-09T01:12:09.938Z,0.00
2022-11-09T01:13:09.885Z,0.00
2022-11-09T01:14:09.863Z,0.00
2022-11-09T01:15:09.851Z,0.00
2022-11-09T01:16:09.847Z,0.00
2022-11-09T01:17:09.887Z,0.00
2022-11-09T01:18:09.838Z,0.00
2022-11-09T01:19:09.821Z,0.00
2022-11-09T01:20:09.812Z,0.00
2022-11-09T01:21:09.793Z,0.00
2022-11-09T01:22:09.829Z,0.00
2022-11-09T01:23:09.784Z,0.00
2022-11-09T01:24:09.775Z,0.00
2022-11-09T01:25:09.760Z,0.00
2022-11-09T01:26:09.763Z,0.00
2022-11-09T01:27:09.771Z,0.00
2022-11-09T01:28:09.722Z,0.00
2022-11-09T01:29:09.725Z,0.00
2022-11-09T01:30:09.704Z,0.00
2022-11-09T01:31:09.680Z,0.00
2022-11-09T01:32:09.698Z,0.00
2022-11-09T01:33:09.664Z,0.00
2022-11-09T01:34:09.672Z,0.00
2022-11-09T01:35:09.649Z,0.00
2022-11-09T01:36:09.647Z,0.00
2022-11-09T01:37:09.673Z,0.00
2022-11-09T01:38:09.593Z,0.00
2022-11-09T01:39:09.597Z,0.00
2022-11-09T01:40:09.579Z,0.00
2022-11-09T01:41:09.585Z,0.00
2022-11-09T01:42:09.613Z,0.00
2022-11-09T01:43:09.573Z,0.00
2022-11-09T01:44:09.547Z,0.00
2022-11-09T01:45:09.522Z,0.00
2022-11-09T01:46:09.520Z,0.00
2022-11-09T01:47:09.542Z,0.00
2022-11-09T01:48:09.499Z,0.00
2022-11-09T01:49:09.489Z,0.00
2022-11-09T01:50:09.482Z,0.00
2022-11-09T01:51:09.452Z,0.00
2022-11-09T01:52:09.468Z,0.00
2022-11-09T01:53:09.434Z,0.00
2022-11-09T01:54:09.413Z,0.00
2022-11-09T01:55:09.418Z,0.00
2022-11-09T01:56:09.408Z,0.00
2022-11-09T01:57:09.425Z,0.00
2022-11-09T01:58:09.387Z,0.00
2022-11-09T01:59:09.386Z,0.00
2022-11-09T02:00:09.360Z,0.00
2022-11-09T02:01:09.470Z,0.00
2022-11-09T02:02:09.366Z,0.00
2022-11-09T02:03:09.333Z,0.00
2022-11-09T02:04:09.323Z,0.00
2022-11-09T02:05:09.303Z,0.00
2022-11-09T02:06:09.278Z,0.00
2022-11-09T02:07:09.345Z,0.00
2022-11-09T02:08:09.280Z,0.00
2022-11-09T02:09:09.262Z,0.00
2022-11-09T02:10:09.232Z,0.00
2022-11-09T02:11:09.238Z,0.00
2022-11-09T02:12:09.285Z,0.00
2022-11-09T02:13:09.223Z,0.00
2022-11-09T02:14:09.214Z,0.00
2022-11-09T02:15:09.210Z,0.00
2022-11-09T02:16:09.191Z,0.00
2022-11-09T02:17:09.163Z,0.00
2022-11-09T02:18:09.184Z,0.00
2022-11-09T02:19:09.143Z,0.00
2022-11-09T02:20:09.149Z,0.00
2022-11-09T02:21:09.123Z,0.00
2022-11-09T02:22:09.118Z,0.00
2022-11-09T02:23:09.142Z,0.00
2022-11-09T02:24:09.102Z,0.00
2022-11-09T02:25:09.089Z,0.00
2022-11-09T02:26:09.064Z,0.00
2022-11-09T02:27:09.073Z,0.00
2022-11-09T02:28:09.083Z,0.00
2022-11-09T02:29:09.031Z,0.00
2022-11-09T02:30:09.007Z,0.00
2022-11-09T02:31:09.003Z,0.00
2022-11-09T02:32:08.985Z,0.00
2022-11-09T02:33:09.024Z,0.00
2022-11-09T02:34:08.981Z,0.00
2022-11-09T02:35:08.973Z,0.00
2022-11-09T02:36:08.960Z,0.00
2022-11-09T02:37:08.941Z,0.00
2022-11-09T02:38:08.973Z,0.00
2022-11-09T02:39:08.922Z,0.00
2022-11-09T02:40:08.924Z,0.00
2022-11-09T02:41:08.910Z,0.00
2022-11-09T02:42:10.644Z,0.00
2022-11-09T02:43:08.901Z,0.00
2022-11-09T02:44:08.852Z,0.00
2022-11-09T02:45:08.865Z,0.00
2022-11-09T02:46:08.837Z,0.00
2022-11-09T02:47:08.843Z,0.00
2022-11-09T02:48:08.856Z,0.00
2022-11-09T02:49:08.800Z,0.00
2022-11-09T02:50:08.799Z,0.00
2022-11-09T02:51:08.776Z,0.00
2022-11-09T02:52:08.768Z,0.00
2022-11-09T02:53:08.801Z,0.00
2022-11-09T02:54:08.785Z,0.00
2022-11-09T02:55:08.748Z,0.00
2022-11-09T02:56:08.730Z,0.00
2022-11-09T02:57:08.748Z,0.00
2022-11-09T02:58:08.744Z,0.00
2022-11-09T02:59:08.702Z,0.00
2022-11-09T03:00:08.681Z,0.00
2022-11-09T03:01:08.751Z,0.00
2022-11-09T03:02:08.648Z,0.00
2022-11-09T03:03:08.668Z,0.00
2022-11-09T03:04:08.688Z,0.00
2022-11-09T03:05:08.626Z,0.00
2022-11-09T03:06:08.623Z,0.00
2022-11-09T03:07:08.664Z,0.00
2022-11-09T03:08:08.581Z,0.00
2022-11-09T03:09:08.612Z,0.00
2022-11-09T03:10:08.565Z,0.00
2022-11-09T03:11:08.567Z,0.00
2022-11-09T03:12:08.563Z,0.00
2022-11-09T03:13:08.556Z,0.00
2022-11-09T03:14:08.562Z,0.00
2022-11-09T03:15:08.522Z,0.00
2022-11-09T03:16:08.491Z,0.00
2022-11-09T03:17:08.495Z,0.00
2022-11-09T03:18:08.473Z,0.00
2022-11-09T03:19:08.492Z,0.00
2022-11-09T03:20:08.459Z,0.00
2022-11-09T03:21:08.445Z,0.00
2022-11-09T03:22:08.438Z,0.00
2022-11-09T03:23:08.417Z,0.00
2022-11-09T03:24:08.455Z,0.00
2022-11-09T03:25:08.401Z,0.00
2022-11-09T03:26:08.412Z,0.00
2022-11-09T03:27:08.394Z,0.00
2022-11-09T03:28:08.377Z,0.00
2022-11-09T03:29:08.379Z,0.00
2022-11-09T03:30:08.339Z,0.00
2022-11-09T03:31:08.369Z,0.00
2022-11-09T03:32:08.317Z,0.00
2022-11-09T03:33:08.332Z,0.00
2022-11-09T03:34:08.337Z,0.00
2022-11-09T03:35:08.309Z,0.00
2022-11-09T03:36:08.282Z,0.00
2022-11-09T03:37:08.259Z,0.00
2022-11-09T03:38:08.282Z,0.00
2022-11-09T03:39:08.293Z,0.00
2022-11-09T03:40:08.224Z,0.00
2022-11-09T03:41:08.254Z,0.00
2022-11-09T03:42:08.214Z,0.00
2022-11-09T03:43:08.220Z,0.00
2022-11-09T03:44:08.240Z,0.00
2022-11-09T03:45:08.162Z,0.00
2022-11-09T03:46:08.144Z,0.00
2022-11-09T03:47:08.139Z,0.00
2022-11-09T03:48:08.129Z,0.00
2022-11-09T03:49:08.166Z,0.00
2022-11-09T03:50:08.113Z,0.00
2022-11-09T03:51:08.126Z,0.00
2022-11-09T03:52:08.098Z,0.00
2022-11-09T03:53:08.081Z,0.00
2022-11-09T03:54:08.113Z,0.00
2022-11-09T03:55:08.063Z,0.00
2022-11-09T03:56:08.063Z,0.00
2022-11-09T03:57:08.047Z,0.00
2022-11-09T03:58:08.045Z,0.00
2022-11-09T03:59:08.066Z,0.00
2022-11-09T04:00:07.998Z,0.00
2022-11-09T04:01:07.987Z,0.00
2022-11-09T04:02:08.065Z,0.00
2022-11-09T04:03:08.000Z,0.00
2022-11-09T04:04:07.999Z,0.00
2022-11-09T04:05:07.973Z,0.00
2022-11-09T04:06:07.943Z,0.00
2022-11-09T04:07:08.043Z,0.00
2022-11-09T04:08:07.916Z,0.00
2022-11-09T04:09:07.942Z,0.00
2022-11-09T04:10:07.896Z,0.00
2022-11-09T04:11:07.873Z,0.00
2022-11-09T04:12:07.890Z,0.00
2022-11-09T04:13:07.878Z,0.00
2022-11-09T04:14:07.908Z,0.00
2022-11-09T04:15:07.841Z,0.00
2022-11-09T04:16:07.819Z,0.00
2022-11-09T04:17:07.820Z,0.00
2022-11-09T04:18:07.800Z,0.00
2022-11-09T04:19:07.825Z,0.00
2022-11-09T04:20:07.788Z,0.00
2022-11-09T04:21:07.765Z,0.00
2022-11-09T04:22:07.763Z,0.00
2022-11-09T04:23:07.735Z,0.00
2022-11-09T04:24:07.757Z,0.00
2022-11-09T04:25:07.711Z,0.00
2022-11-09T04:26:07.701Z,0.00
2022-11-09T04:27:07.720Z,0.00
2022-11-09T04:28:07.694Z,0.00
2022-11-09T04:29:07.702Z,0.00
2022-11-09T04:30:07.660Z,0.00
2022-11-09T04:31:07.658Z,0.00
2022-11-09T04:32:07.651Z,0.00
2022-11-09T04:33:07.639Z,0.00
2022-11-09T04:34:07.621Z,0.00
2022-11-09T04:35:07.635Z,0.00
2022-11-09T04:36:07.608Z,0.00
2022-11-09T04:37:07.582Z,0.00
2022-11-09T04:38:07.589Z,0.00
2022-11-09T04:39:07.571Z,0.00
2022-11-09T04:40:07.590Z,0.00
2022-11-09T04:41:07.538Z,0.00
2022-11-09T04:42:07.555Z,0.00
2022-11-09T04:43:07.519Z,0.00
2022-11-09T04:44:07.503Z,0.00
2022-11-09T04:45:07.517Z,0.00
2022-11-09T04:46:07.489Z,0.00
2022-11-09T04:47:07.477Z,0.00
2022-11-09T04:48:07.473Z,0.00
2022-11-09T04:49:07.459Z,0.00
2022-11-09T04:50:07.489Z,0.00
2022-11-09T04:51:07.430Z,0.00
2022-11-09T04:52:07.429Z,0.00
2022-11-09T04:53:07.972Z,0.00
2022-11-09T04:54:07.407Z,0.00
2022-11-09T04:55:07.424Z,0.00
2022-11-09T04:56:07.380Z,0.00
2022-11-09T04:57:07.358Z,0.00
2022-11-09T04:58:07.366Z,0.00
2022-11-09T04:59:07.368Z,0.00
2022-11-09T05:00:07.375Z,0.00
2022-11-09T05:01:07.298Z,0.00
2022-11-09T05:02:07.298Z,0.00
2022-11-09T05:03:07.288Z,0.00
2022-11-09T05:04:07.419Z,0.00
2022-11-09T05:05:07.277Z,0.00
2022-11-09T05:06:07.259Z,0.00
2022-11-09T05:07:07.306Z,0.00
2022-11-09T05:08:07.245Z,0.00
2022-11-09T05:09:07.220Z,0.00
2022-11-09T05:10:07.248Z,0.00
2022-11-09T05:11:07.200Z,0.00
2022-11-09T05:12:07.182Z,0.00
2022-11-09T05:13:07.221Z,0.00
2022-11-09T05:14:07.169Z,0.00
2022-11-09T05:15:07.178Z,0.00
2022-11-09T05:16:07.139Z,0.00
2022-11-09T05:17:07.151Z,0.00
2022-11-09T05:18:07.127Z,0.00
2022-11-09T05:19:07.113Z,0.00
2022-11-09T05:20:07.137Z,0.00
2022-11-09T05:21:07.098Z,0.00
2022-11-09T05:22:07.083Z,0.00
2022-11-09T05:23:07.054Z,0.00
2022-11-09T05:24:07.064Z,0.00
2022-11-09T05:25:07.086Z,0.00
2022-11-09T05:26:07.045Z,0.00
2022-11-09T05:27:07.030Z,0.00
2022-11-09T05:28:08.461Z,0.00
2022-11-09T05:29:07.044Z,0.00
2022-11-09T05:30:07.011Z,0.00
2022-11-09T05:31:06.981Z,0.00
2022-11-09T05:32:06.952Z,0.00
2022-11-09T05:33:06.964Z,0.00
2022-11-09T05:34:06.987Z,0.00
2022-11-09T05:35:06.936Z,0.00
2022-11-09T05:36:06.932Z,0.00
2022-11-09T05:37:06.894Z,4.00
2022-11-09T05:38:06.888Z,4.00
2022-11-09T05:39:06.865Z,0.00
2022-11-09T05:40:06.917Z,4.00
2022-11-09T05:41:06.851Z,4.00
2022-11-09T05:42:06.865Z,4.00
2022-11-09T05:43:06.839Z,4.00
2022-11-09T05:44:06.838Z,4.00
2022-11-09T05:45:35.503Z,4.00
2022-11-09T05:46:07.800Z,8.00
2022-11-09T05:47:06.796Z,12.00
2022-11-09T05:48:06.772Z,12.00
2022-11-09T05:49:06.759Z,12.00
2022-11-09T05:50:06.810Z,16.00
2022-11-09T05:51:06.762Z,20.00
2022-11-09T05:52:06.738Z,28.00
2022-11-09T05:53:06.712Z,28.00
2022-11-09T05:54:06.724Z,32.00
2022-11-09T05:55:06.740Z,36.00
2022-11-09T05:56:06.695Z,44.00
2022-11-09T05:57:06.687Z,52.00
2022-11-09T05:58:06.685Z,60.00
2022-11-09T05:59:06.688Z,68.00
2022-11-09T06:00:10.842Z,76.00
2022-11-09T06:01:06.645Z,88.00
2022-11-09T06:02:06.660Z,92.00
2022-11-09T06:03:06.622Z,100.00
2022-11-09T06:04:06.618Z,108.00
2022-11-09T06:05:06.612Z,120.00
2022-11-09T06:06:08.680Z,132.00
2022-11-09T06:07:06.650Z,152.00
2022-11-09T06:08:06.567Z,172.00
2022-11-09T06:09:06.531Z,176.00
2022-11-09T06:10:06.557Z,168.00
2022-11-09T06:11:06.521Z,172.00
2022-11-09T06:12:06.494Z,188.00
2022-11-09T06:13:06.489Z,212.00
2022-11-09T06:14:06.513Z,224.00
2022-11-09T06:15:06.502Z,224.00
2022-11-09T06:16:06.459Z,224.00
2022-11-09T06:17:06.456Z,232.00
2022-11-09T06:18:06.436Z,244.00
2022-11-09T06:19:06.443Z,256.00
2022-11-09T06:20:06.483Z,268.00
2022-11-09T06:21:06.421Z,264.00
2022-11-09T06:22:06.400Z,268.00
2022-11-09T06:23:06.395Z,276.00
2022-11-09T06:24:06.388Z,296.00
2022-11-09T06:25:06.433Z,320.00
2022-11-09T06:26:06.375Z,344.00
2022-11-09T06:27:06.338Z,364.00
2022-11-09T06:28:06.360Z,400.00
2022-11-09T06:29:06.321Z,460.00
2022-11-09T06:30:06.346Z,532.00
2022-11-09T06:31:06.294Z,612.00
2022-11-09T06:32:06.296Z,676.00
2022-11-09T06:33:06.279Z,744.00
2022-11-09T06:34:06.272Z,840.00
2022-11-09T06:35:06.257Z,960.00
2022-11-09T06:36:06.243Z,1096.00
2022-11-09T06:37:06.235Z,1252.00
2022-11-09T06:38:06.235Z,1452.00
2022-11-09T06:39:06.211Z,1656.00
2022-11-09T06:40:06.219Z,1808.00
2022-11-09T06:41:06.178Z,1900.00
2022-11-09T06:42:06.230Z,1928.00
2022-11-09T06:43:06.149Z,1908.00
2022-11-09T06:44:06.171Z,1832.00
2022-11-09T06:45:06.179Z,1784.00
2022-11-09T06:46:06.178Z,1792.00
2022-11-09T06:47:06.114Z,1732.00
2022-11-09T06:48:06.097Z,1540.00
2022-11-09T06:49:06.093Z,1360.00
2022-11-09T06:50:06.117Z,1268.00
2022-11-09T06:51:06.071Z,1224.00
2022-11-09T06:52:06.051Z,1244.00
2022-11-09T06:53:06.030Z,1260.00
2022-11-09T06:54:06.033Z,1244.00
2022-11-09T06:55:06.040Z,1200.00
2022-11-09T06:56:06.020Z,1160.00
2022-11-09T06:57:05.998Z,1116.00
2022-11-09T06:58:05.997Z,1076.00
2022-11-09T06:59:05.970Z,1040.00
2022-11-09T07:00:06.008Z,1024.00
2022-11-09T07:01:06.051Z,1076.00
2022-11-09T07:02:05.965Z,1604.00
2022-11-09T07:03:05.935Z,1600.00
2022-11-09T07:04:05.936Z,1528.00
2022-11-09T07:05:05.955Z,1584.00
2022-11-09T07:06:05.901Z,1736.00
2022-11-09T07:07:05.972Z,1544.00
2022-11-09T07:08:05.878Z,1748.00
2022-11-09T07:09:05.893Z,2104.00
2022-11-09T07:10:05.908Z,2520.00
2022-11-09T07:11:05.865Z,2152.00
2022-11-09T07:12:05.847Z,2040.00
2022-11-09T07:13:05.824Z,2176.00
2022-11-09T07:14:05.848Z,2444.00
2022-11-09T07:15:05.821Z,2628.00
2022-11-09T07:16:05.821Z,2796.00
2022-11-09T07:17:05.783Z,2924.00
2022-11-09T07:18:05.784Z,2824.00
2022-11-09T07:19:05.753Z,2760.00
2022-11-09T07:20:05.799Z,2888.00
2022-11-09T07:21:08.837Z,3156.00
2022-11-09T07:22:06.723Z,3520.00
2022-11-09T07:23:05.709Z,3748.00
2022-11-09T07:24:05.698Z,3880.00
2022-11-09T07:25:05.724Z,4000.00
2022-11-09T07:26:05.681Z,4028.00
2022-11-09T07:27:05.663Z,4108.00
2022-11-09T07:28:05.667Z,4508.00
2022-11-09T07:29:05.649Z,4948.00
2022-11-09T07:30:05.656Z,3540.00
2022-11-09T07:31:05.615Z,3104.00
2022-11-09T07:32:05.633Z,2840.00
2022-11-09T07:33:10.320Z,2772.00
2022-11-09T07:34:06.599Z,2860.00
2022-11-09T07:35:05.601Z,3004.00
2022-11-09T07:36:05.553Z,3180.00
2022-11-09T07:37:05.568Z,3344.00
2022-11-09T07:38:05.553Z,3808.00
2022-11-09T07:39:05.524Z,4188.00
2022-11-09T07:40:05.663Z,4400.00
2022-11-09T07:41:05.509Z,3940.00
2022-11-09T07:42:05.502Z,3968.00
2022-11-09T07:43:05.494Z,4296.00
2022-11-09T07:44:05.467Z,4516.00
2022-11-09T07:45:05.490Z,4552.00
2022-11-09T07:46:05.457Z,4812.00
2022-11-09T07:47:05.446Z,5040.00
2022-11-09T07:48:05.430Z,4740.00
2022-11-09T07:49:05.407Z,4056.00
2022-11-09T07:50:05.427Z,3456.00
2022-11-09T07:51:05.378Z,3168.00
2022-11-09T07:52:05.381Z,3208.00
2022-11-09T07:53:05.393Z,3420.00
2022-11-09T07:54:05.385Z,3676.00
2022-11-09T07:55:05.386Z,3972.00
2022-11-09T07:56:05.338Z,4340.00
2022-11-09T07:57:05.337Z,4528.00
2022-11-09T07:58:05.314Z,4424.00
2022-11-09T07:59:05.308Z,4176.00
2022-11-09T08:00:05.326Z,4072.00
2022-11-09T08:01:05.287Z,4120.00
2022-11-09T08:02:05.330Z,4184.00
2022-11-09T08:03:05.242Z,4260.00
2022-11-09T08:04:05.250Z,4352.00
2022-11-09T08:05:05.265Z,4568.00
2022-11-09T08:06:05.216Z,4984.00
2022-11-09T08:07:05.249Z,5276.00
2022-11-09T08:08:05.249Z,5372.00
2022-11-09T08:09:05.178Z,5476.00
2022-11-09T08:10:05.217Z,5856.00
2022-11-09T08:11:05.169Z,6692.00
2022-11-09T08:12:05.178Z,7376.00
2022-11-09T08:13:05.156Z,7688.00
2022-11-09T08:14:05.120Z,7796.00
2022-11-09T08:15:05.135Z,7908.00
2022-11-09T08:16:05.129Z,7864.00
2022-11-09T08:17:05.078Z,7308.00
2022-11-09T08:18:05.088Z,6592.00
2022-11-09T08:19:05.070Z,6024.00
2022-11-09T08:20:05.067Z,5432.00
2022-11-09T08:21:05.090Z,4920.00
2022-11-09T08:22:05.057Z,4512.00
2022-11-09T08:23:05.234Z,4204.00
2022-11-09T08:24:05.019Z,4060.00
2022-11-09T08:25:05.013Z,3932.00
2022-11-09T08:26:05.053Z,3744.00
2022-11-09T08:27:05.000Z,3676.00
2022-11-09T08:28:04.967Z,3632.00
2022-11-09T08:29:04.945Z,3528.00
2022-11-09T08:30:04.957Z,3528.00
2022-11-09T08:31:04.971Z,3552.00
2022-11-09T08:32:04.942Z,3468.00
2022-11-09T08:33:04.907Z,3448.00
2022-11-09T08:34:04.931Z,3732.00
2022-11-09T08:35:04.894Z,4424.00
2022-11-09T08:36:04.927Z,5536.00
2022-11-09T08:37:04.873Z,6568.00
2022-11-09T08:38:04.846Z,7264.00
2022-11-09T08:39:04.849Z,7504.00
2022-11-09T08:40:04.816Z,7528.00
2022-11-09T08:41:09.268Z,7980.00
2022-11-09T08:42:05.812Z,8612.00
2022-11-09T08:43:04.778Z,8820.00
2022-11-09T08:44:04.764Z,8548.00
2022-11-09T08:45:04.785Z,8324.00
2022-11-09T08:46:04.764Z,8392.00
2022-11-09T08:47:04.761Z,8412.00
2022-11-09T08:48:04.763Z,8196.00
2022-11-09T08:49:04.738Z,7864.00
2022-11-09T08:50:04.726Z,7468.00
2022-11-09T08:51:04.739Z,6972.00
2022-11-09T08:52:04.699Z,6256.00
2022-11-09T08:53:04.677Z,5532.00
2022-11-09T08:54:04.685Z,5120.00
2022-11-09T08:55:04.665Z,5012.00
2022-11-09T08:56:04.677Z,4884.00
2022-11-09T08:57:04.638Z,4560.00
2022-11-09T08:58:04.643Z,4260.00
2022-11-09T08:59:04.634Z,4116.00
2022-11-09T09:00:04.619Z,3956.00
2022-11-09T09:01:04.623Z,3832.00
2022-11-09T09:02:04.679Z,3820.00
2022-11-09T09:03:04.579Z,3904.00
2022-11-09T09:04:04.554Z,4024.00
2022-11-09T09:05:04.543Z,4148.00
2022-11-09T09:06:04.559Z,4272.00
2022-11-09T09:07:04.611Z,4312.00
2022-11-09T09:08:04.522Z,4392.00
2022-11-09T09:09:04.501Z,4536.00
2022-11-09T09:10:04.525Z,4652.00
2022-11-09T09:11:04.500Z,4684.00
2022-11-09T09:12:04.452Z,4936.00
2022-11-09T09:13:04.475Z,5224.00
2022-11-09T09:14:04.446Z,5408.00
2022-11-09T09:15:04.449Z,5568.00
2022-11-09T09:16:04.451Z,5688.00
2022-11-09T09:17:04.429Z,5884.00
2022-11-09T09:18:04.415Z,6108.00
2022-11-09T09:19:04.379Z,6384.00
2022-11-09T09:20:04.358Z,6900.00
2022-11-09T09:21:04.392Z,7344.00
2022-11-09T09:22:04.338Z,7484.00
2022-11-09T09:23:04.330Z,7572.00
2022-11-09T09:24:04.326Z,7804.00
2022-11-09T09:25:04.315Z,8000.00
2022-11-09T09:26:04.390Z,8064.00
2022-11-09T09:27:04.296Z,8016.00
2022-11-09T09:28:04.277Z,7816.00
2022-11-09T09:29:04.278Z,7604.00
2022-11-09T09:30:04.245Z,7836.00
2022-11-09T09:31:04.292Z,8220.00
2022-11-09T09:32:04.245Z,8376.00
2022-11-09T09:33:04.221Z,8388.00
2022-11-09T09:34:04.217Z,8412.00
2022-11-09T09:35:04.204Z,8360.00
2022-11-09T09:36:04.247Z,8064.00
2022-11-09T09:37:04.188Z,7580.00
2022-11-09T09:38:04.178Z,7004.00
2022-11-09T09:39:04.160Z,6508.00
2022-11-09T09:40:04.142Z,6136.00
2022-11-09T09:41:04.151Z,6032.00
2022-11-09T09:42:04.124Z,6036.00
2022-11-09T09:43:04.106Z,5880.00
2022-11-09T09:44:04.102Z,5576.00
2022-11-09T09:45:04.114Z,5396.00
2022-11-09T09:46:04.107Z,5428.00
2022-11-09T09:47:04.064Z,5608.00
2022-11-09T09:48:04.064Z,5984.00
2022-11-09T09:49:04.038Z,6432.00
2022-11-09T09:50:04.081Z,6380.00
2022-11-09T09:51:04.072Z,5956.00
2022-11-09T09:52:04.032Z,5744.00
2022-11-09T09:53:23.180Z,5716.00
2022-11-09T09:54:04.983Z,5656.00
2022-11-09T09:55:03.983Z,5420.00
2022-11-09T09:56:03.996Z,5272.00
2022-11-09T09:57:03.947Z,5388.00
2022-11-09T09:58:03.930Z,5504.00
2022-11-09T09:59:03.935Z,5308.00
2022-11-09T10:00:03.916Z,5112.00
2022-11-09T10:01:03.901Z,5260.00
2022-11-09T10:02:03.926Z,5592.00
2022-11-09T10:03:03.891Z,5684.00
2022-11-09T10:04:03.948Z,5592.00
2022-11-09T10:05:03.861Z,5404.00
2022-11-09T10:06:03.847Z,5112.00
2022-11-09T10:07:03.924Z,4920.00
2022-11-09T10:08:03.829Z,4900.00
2022-11-09T10:09:03.818Z,4780.00
2022-11-09T10:10:03.797Z,4580.00
2022-11-09T10:11:03.812Z,4416.00
2022-11-09T10:12:03.837Z,4356.00
2022-11-09T10:13:03.759Z,4452.00
2022-11-09T10:14:03.770Z,4620.00
2022-11-09T10:15:03.754Z,4824.00
2022-11-09T10:16:03.779Z,4956.00
2022-11-09T10:17:03.722Z,4948.00
2022-11-09T10:18:03.713Z,4792.00
2022-11-09T10:19:03.705Z,4580.00
2022-11-09T10:20:03.678Z,4380.00
2022-11-09T10:21:03.690Z,4252.00
2022-11-09T10:22:03.715Z,4304.00
2022-11-09T10:23:03.673Z,4660.00
2022-11-09T10:24:03.662Z,5220.00
2022-11-09T10:25:32.125Z,5816.00
2022-11-09T10:26:06.892Z,6396.00
2022-11-09T10:27:03.628Z,6860.00
2022-11-09T10:28:03.582Z,7244.00
2022-11-09T10:29:16.219Z,7552.00
2022-11-09T10:30:04.550Z,7728.00
2022-11-09T10:31:03.563Z,7664.00
2022-11-09T10:32:03.581Z,7448.00
2022-11-09T10:33:03.552Z,7304.00
2022-11-09T10:34:03.517Z,7192.00
2022-11-09T10:35:03.550Z,7000.00
2022-11-09T10:36:07.993Z,6732.00
2022-11-09T10:37:03.530Z,6532.00
2022-11-09T10:38:03.486Z,6588.00
2022-11-09T10:39:03.482Z,6892.00
2022-11-09T10:40:03.455Z,7260.00
2022-11-09T10:41:03.458Z,7564.00
2022-11-09T10:42:03.466Z,7768.00
2022-11-09T10:43:03.419Z,8044.00
2022-11-09T10:44:03.408Z,8628.00
2022-11-09T10:45:03.415Z,9628.00
2022-11-09T10:46:03.370Z,10832.00
2022-11-09T10:47:03.417Z,11880.00
2022-11-09T10:48:03.361Z,12628.00
2022-11-09T10:49:03.366Z,13128.00
2022-11-09T10:50:03.337Z,13476.00
2022-11-09T10:51:03.350Z,13748.00
2022-11-09T10:52:03.343Z,13948.00
2022-11-09T10:53:03.312Z,14084.00
2022-11-09T10:54:03.277Z,14204.00
2022-11-09T10:55:03.289Z,14424.00
2022-11-09T10:56:03.278Z,14692.00
2022-11-09T10:57:07.048Z,14804.00
2022-11-09T10:58:03.272Z,14764.00
2022-11-09T10:59:03.249Z,14516.00
2022-11-09T11:00:03.258Z,14248.00
2022-11-09T11:01:03.224Z,13980.00
2022-11-09T11:02:03.275Z,13760.00
2022-11-09T11:03:03.200Z,13560.00
2022-11-09T11:04:03.178Z,13340.00
2022-11-09T11:05:03.221Z,13112.00
2022-11-09T11:06:03.179Z,12904.00
2022-11-09T11:07:03.230Z,12728.00
2022-11-09T11:08:03.150Z,12652.00
2022-11-09T11:09:03.134Z,12800.00
2022-11-09T11:10:03.122Z,13168.00
2022-11-09T11:11:27.326Z,13628.00
2022-11-09T11:12:04.136Z,14032.00
2022-11-09T11:13:03.070Z,14344.00
2022-11-09T11:14:03.075Z,14528.00
2022-11-09T11:15:03.046Z,14548.00
2022-11-09T11:16:03.039Z,14400.00
2022-11-09T11:17:03.062Z,14024.00
2022-11-09T11:18:03.026Z,13484.00
2022-11-09T11:19:03.030Z,12940.00
2022-11-09T11:20:02.999Z,12580.00
2022-11-09T11:21:02.999Z,12412.00
2022-11-09T11:22:03.036Z,12396.00
2022-11-09T11:23:02.956Z,12316.00
2022-11-09T11:24:02.960Z,12052.00
2022-11-09T11:25:02.947Z,11724.00
2022-11-09T11:26:02.934Z,11624.00
2022-11-09T11:27:06.616Z,11840.00
2022-11-09T11:28:03.928Z,12200.00
2022-11-09T11:29:02.908Z,12548.00
2022-11-09T11:30:02.879Z,12936.00
2022-11-09T11:31:02.873Z,13500.00
2022-11-09T11:32:02.904Z,14264.00
2022-11-09T11:33:02.876Z,14952.00
2022-11-09T11:34:02.916Z,15432.00
2022-11-09T11:35:02.882Z,15716.00
2022-11-09T11:36:02.821Z,15900.00
2022-11-09T11:37:02.849Z,16572.00
2022-11-09T11:38:02.800Z,16508.00
2022-11-09T11:39:02.818Z,17000.00
2022-11-09T11:40:02.789Z,16868.00
2022-11-09T11:41:02.780Z,16528.00
2022-11-09T11:42:02.785Z,15984.00
2022-11-09T11:43:02.764Z,15736.00
2022-11-09T11:44:02.709Z,15308.00
2022-11-09T11:45:33.483Z,15112.00
2022-11-09T11:46:03.696Z,15152.00
2022-11-09T11:47:02.725Z,15300.00
2022-11-09T11:48:02.675Z,15480.00
2022-11-09T11:49:02.675Z,15752.00
2022-11-09T11:50:02.679Z,16352.00
2022-11-09T11:51:02.639Z,16984.00
2022-11-09T11:52:02.659Z,18688.00
2022-11-09T11:53:02.635Z,19936.00
2022-11-09T11:54:02.623Z,21152.00
2022-11-09T11:55:02.610Z,21024.00
2022-11-09T11:56:02.616Z,20992.00
2022-11-09T11:57:02.589Z,20576.00
2022-11-09T11:58:02.577Z,20192.00
2022-11-09T11:59:02.555Z,18880.00
2022-11-09T12:00:02.546Z,18816.00
2022-11-09T12:01:02.576Z,18816.00
2022-11-09T12:02:02.533Z,18880.00
2022-11-09T12:03:02.596Z,19392.00
2022-11-09T12:04:02.493Z,20864.00
2022-11-09T12:05:02.505Z,18816.00
2022-11-09T12:06:02.484Z,20032.00
2022-11-09T12:07:02.577Z,19520.00
2022-11-09T12:08:02.454Z,18400.00
2022-11-09T12:09:02.448Z,18656.00
2022-11-09T12:10:02.442Z,19200.00
2022-11-09T12:11:02.435Z,18848.00
2022-11-09T12:12:02.442Z,19200.00
2022-11-09T12:13:02.406Z,21344.00
2022-11-09T12:14:02.398Z,19936.00
2022-11-09T12:15:02.386Z,21824.00
2022-11-09T12:16:02.406Z,20832.00
2022-11-09T12:17:02.365Z,21984.00
2022-11-09T12:18:02.332Z,22848.00
2022-11-09T12:19:02.321Z,22944.00
2022-11-09T12:20:02.319Z,23584.00
2022-11-09T12:21:02.345Z,15476.00
2022-11-09T12:22:02.295Z,14788.00
2022-11-09T12:23:02.282Z,14200.00
2022-11-09T12:24:02.264Z,14284.00
2022-11-09T12:25:02.251Z,14320.00
2022-11-09T12:26:02.239Z,14172.00
2022-11-09T12:27:25.535Z,14072.00
2022-11-09T12:28:03.222Z,14244.00
2022-11-09T12:29:02.216Z,14212.00
2022-11-09T12:30:02.207Z,13948.00
2022-11-09T12:31:02.178Z,13684.00
2022-11-09T12:32:02.202Z,14872.00
2022-11-09T12:33:02.168Z,15412.00
2022-11-09T12:34:02.174Z,19296.00
2022-11-09T12:35:02.154Z,20224.00